Time;durP1;ratioP1;P1;durP2;ratioP2;P2;SDS_P1;SDS_P2;PMS_P1;PMS_P2;Temp;Humidity;BMP_temperature;BMP_pressure;BME280_temperature;BME280_humidity;BME280_pressure;Samples;Min_cycle;Max_cycle;Signal;HPM_P1;HPM_P2
2023/11/02 00:02:02;;;;;;;5.70;0.75;;;10.70;99.90;;;;;;15513949;22;20047;-85
2023/11/02 00:08:06;;;;;;;3.63;0.68;;;10.60;99.90;;;;;;15508112;22;20540;-85
2023/11/02 00:14:08;;;;;;;2.17;0.65;;;10.50;99.90;;;;;;15513871;22;20020;-85
2023/11/02 00:20:31;;;;;;;3.53;0.70;;;10.60;99.90;;;;;;15512356;22;20575;-85
2023/11/02 00:26:33;;;;;;;2.20;0.63;;;10.60;99.90;;;;;;15516623;22;20028;-84
2023/11/02 00:32:35;;;;;;;3.15;0.55;;;10.50;99.90;;;;;;15517795;22;20020;-86
2023/11/02 00:38:37;;;;;;;1.83;0.50;;;10.50;99.90;;;;;;15516918;22;20024;-85
2023/11/02 00:44:40;;;;;;;3.83;0.80;;;10.40;99.90;;;;;;15519356;22;20324;-86
2023/11/02 00:51:12;;;;;;;3.63;0.50;;;10.40;99.90;;;;;;15510113;22;20024;-85
2023/11/02 00:57:16;;;;;;;4.57;0.75;;;10.40;99.90;;;;;;15547741;22;20219;-84
2023/11/02 01:03:20;;;;;;;5.15;1.10;;;10.40;99.90;;;;;;15547025;22;20174;-84
2023/11/02 01:09:51;;;;;;;2.08;0.50;;;10.30;99.90;;;;;;15540543;22;20099;-85
2023/11/02 01:16:07;;;;;;;4.50;0.70;;;10.20;99.90;;;;;;15517716;22;20031;-84
2023/11/02 01:22:29;;;;;;;3.08;1.13;;;10.20;99.90;;;;;;15530343;22;20023;-85
2023/11/02 01:28:48;;;;;;;1.80;0.60;;;10.20;99.90;;;;;;15461712;22;20032;-84
2023/11/02 01:34:52;;;;;;;2.08;0.55;;;10.20;99.90;;;;;;15543172;22;20317;-83
2023/11/02 01:41:09;;;;;;;4.10;1.25;;;10.10;99.90;;;;;;15599861;22;20038;-83
2023/11/02 01:47:26;;;;;;;3.05;0.63;;;10.10;99.90;;;;;;15577259;22;20034;-84
2023/11/02 01:53:51;;;;;;;2.33;1.83;;;10.10;99.90;;;;;;15552849;22;20019;-84
2023/11/02 02:00:04;;;;;;;2.15;0.50;;;10.00;99.90;;;;;;15570332;22;20028;-84
2023/11/02 02:06:13;;;;;;;1.20;0.50;;;10.00;99.90;;;;;;15572219;22;20033;-85
2023/11/02 02:12:28;;;;;;;2.97;0.50;;;10.00;99.90;;;;;;15599554;22;20026;-85
2023/11/02 02:18:48;;;;;;;3.17;0.90;;;10.10;99.90;;;;;;15564770;22;20023;-82
2023/11/02 02:25:19;;;;;;;1.42;0.60;;;10.10;99.90;;;;;;15595717;22;20385;-83
2023/11/02 02:31:30;;;;;;;3.35;0.70;;;10.20;99.90;;;;;;15567071;22;20024;-84
2023/11/02 02:37:34;;;;;;;2.08;0.80;;;10.30;99.90;;;;;;15599548;22;20011;-83
2023/11/02 02:43:38;;;;;;;2.20;0.65;;;10.30;99.90;;;;;;15626841;22;20007;-83
2023/11/02 02:49:43;;;;;;;3.47;0.73;;;10.40;99.90;;;;;;15553716;22;20020;-82
2023/11/02 02:55:49;;;;;;;3.00;0.65;;;10.40;99.90;;;;;;15542881;22;20030;-81
2023/11/02 03:01:54;;;;;;;2.65;0.70;;;10.40;99.90;;;;;;15550318;22;20039;-82
2023/11/02 03:08:02;;;;;;;3.22;0.80;;;10.40;99.90;;;;;;15518502;22;20478;-81
2023/11/02 03:14:05;;;;;;;2.38;0.50;;;10.50;99.90;;;;;;15518223;22;20759;-81
2023/11/02 03:20:08;;;;;;;1.63;0.77;;;10.60;99.90;;;;;;15545005;22;20027;-81
2023/11/02 03:26:37;;;;;;;3.63;0.70;;;10.50;99.90;;;;;;15516511;22;20146;-80
2023/11/02 03:33:22;;;;;;;1.77;0.55;;;10.50;99.90;;;;;;15516580;22;20406;-82
2023/11/02 03:39:43;;;;;;;4.80;0.70;;;10.40;99.90;;;;;;15538113;22;20024;-83
2023/11/02 03:46:03;;;;;;;3.78;0.70;;;10.50;99.90;;;;;;15539948;22;20023;-81
2023/11/02 03:52:17;;;;;;;2.65;0.70;;;10.50;99.90;;;;;;15514631;22;20019;-82
2023/11/02 03:58:21;;;;;;;3.10;0.80;;;10.40;99.90;;;;;;15516944;22;20425;-82
2023/11/02 04:04:39;;;;;;;4.90;0.93;;;10.50;99.90;;;;;;15538504;22;20023;-82
2023/11/02 04:11:18;;;;;;;2.72;0.77;;;10.60;99.90;;;;;;15519414;22;20378;-82
2023/11/02 04:17:20;;;;;;;2.40;0.80;;;10.50;99.90;;;;;;15491848;22;20031;-80
2023/11/02 04:23:23;;;;;;;3.25;1.13;;;10.50;99.90;;;;;;15522278;22;20457;-81
2023/11/02 04:29:25;;;;;;;3.33;0.65;;;10.40;99.90;;;;;;15526096;22;20028;-81
2023/11/02 04:35:27;;;;;;;4.65;0.80;;;10.40;99.90;;;;;;15518000;22;20028;-82
2023/11/02 04:41:29;;;;;;;3.75;0.70;;;10.20;99.90;;;;;;15546430;22;20054;-80
2023/11/02 04:47:31;;;;;;;2.15;0.65;;;10.30;99.90;;;;;;15555684;22;20445;-81
2023/11/02 04:53:32;;;;;;;4.03;0.70;;;10.40;99.90;;;;;;15528077;22;20031;-84
2023/11/02 04:59:42;;;;;;;4.30;1.65;;;10.40;99.90;;;;;;15548876;22;20028;-82
2023/11/02 05:05:44;;;;;;;2.40;0.55;;;10.40;99.90;;;;;;15515766;22;20027;-81
2023/11/02 05:11:46;;;;;;;5.82;1.00;;;10.40;99.90;;;;;;15579577;22;20019;-83
2023/11/02 05:17:48;;;;;;;4.50;0.90;;;10.50;99.90;;;;;;15610022;22;20007;-81
2023/11/02 05:23:50;;;;;;;3.67;0.60;;;10.50;99.90;;;;;;15589361;22;20035;-82
2023/11/02 05:29:52;;;;;;;4.30;0.82;;;10.60;99.90;;;;;;15614659;22;20027;-82
2023/11/02 05:35:54;;;;;;;2.45;0.60;;;10.60;99.90;;;;;;15596378;22;20214;-82
2023/11/02 05:41:55;;;;;;;3.30;0.57;;;10.70;99.90;;;;;;15610692;22;20010;-84
2023/11/02 05:47:57;;;;;;;2.15;0.70;;;10.70;99.90;;;;;;15588842;22;20024;-83
2023/11/02 05:53:59;;;;;;;2.05;0.45;;;10.70;99.90;;;;;;15567046;22;20534;-79
2023/11/02 06:00:07;;;;;;;3.15;0.70;;;10.70;99.90;;;;;;15522913;22;20480;-81
2023/11/02 06:06:10;;;;;;;3.13;0.60;;;10.70;99.90;;;;;;15515803;22;20054;-82
2023/11/02 06:12:13;;;;;;;5.65;0.40;;;10.70;99.90;;;;;;15504332;22;20035;-81
2023/11/02 06:18:15;;;;;;;4.03;0.68;;;10.80;99.90;;;;;;15518481;22;20054;-81
2023/11/02 06:24:17;;;;;;;2.78;0.52;;;10.80;99.90;;;;;;15535050;22;20031;-81
2023/11/02 06:30:19;;;;;;;2.28;0.60;;;10.80;99.90;;;;;;15514711;22;20055;-81
2023/11/02 06:36:21;;;;;;;2.22;0.52;;;10.90;99.90;;;;;;15504551;22;20173;-83
2023/11/02 06:42:27;;;;;;;2.50;0.80;;;11.00;99.90;;;;;;15527211;22;20495;-81
2023/11/02 06:48:29;;;;;;;1.85;0.40;;;11.00;99.90;;;;;;15509596;22;20047;-87
2023/11/02 06:54:31;;;;;;;2.97;0.57;;;10.90;99.90;;;;;;15500224;22;20572;-81
2023/11/02 07:00:33;;;;;;;4.07;0.47;;;10.90;99.90;;;;;;15506240;22;20024;-84
2023/11/02 07:06:35;;;;;;;3.90;0.60;;;10.90;99.90;;;;;;15514568;22;20039;-85
2023/11/02 07:12:37;;;;;;;2.08;0.40;;;10.90;99.90;;;;;;15503750;22;20051;-82
2023/11/02 07:18:40;;;;;;;2.00;0.65;;;10.90;99.90;;;;;;15510327;22;20109;-85
2023/11/02 07:24:42;;;;;;;4.78;0.68;;;11.00;99.90;;;;;;15509383;22;20028;-78
2023/11/02 07:30:44;;;;;;;1.65;0.60;;;11.10;99.90;;;;;;15504872;22;20396;-85
2023/11/02 07:36:46;;;;;;;2.03;0.40;;;11.10;99.90;;;;;;15530841;22;20030;-84
2023/11/02 07:42:50;;;;;;;2.88;0.60;;;11.10;99.90;;;;;;15542112;22;20568;-82
2023/11/02 07:48:52;;;;;;;2.92;0.60;;;11.10;99.90;;;;;;15532185;22;20031;-84
2023/11/02 07:54:57;;;;;;;3.78;0.38;;;11.20;99.90;;;;;;15518332;22;20358;-84
2023/11/02 08:00:58;;;;;;;4.47;0.60;;;11.20;99.90;;;;;;15515933;22;20323;-84
2023/11/02 08:07:03;;;;;;;1.85;0.50;;;11.30;99.90;;;;;;15524631;22;20027;-83
2023/11/02 08:13:05;;;;;;;1.85;0.40;;;11.40;99.90;;;;;;15510887;22;20150;-83
2023/11/02 08:19:09;;;;;;;1.05;0.40;;;11.50;99.90;;;;;;15541833;22;20019;-82
2023/11/02 08:25:11;;;;;;;2.40;0.50;;;11.60;99.90;;;;;;15507108;22;20488;-82
2023/11/02 08:31:13;;;;;;;1.25;0.30;;;11.60;99.90;;;;;;15514951;22;20019;-83
2023/11/02 08:37:15;;;;;;;0.35;0.20;;;11.80;99.90;;;;;;15504722;22;20031;-84
2023/11/02 08:43:17;;;;;;;1.38;0.45;;;11.80;99.90;;;;;;15540062;22;20245;-83
2023/11/02 08:49:20;;;;;;;5.45;0.50;;;11.80;99.90;;;;;;15507716;22;20050;-83
2023/11/02 08:55:22;;;;;;;3.97;0.50;;;11.80;99.90;;;;;;15515540;22;20024;-81
2023/11/02 09:01:25;;;;;;;0.38;0.28;;;11.80;99.90;;;;;;15529893;22;20051;-81
2023/11/02 09:07:30;;;;;;;0.65;0.30;;;11.80;99.90;;;;;;15489561;22;20023;-81
2023/11/02 09:13:32;;;;;;;0.73;0.45;;;11.80;99.90;;;;;;15528768;22;20091;-82
2023/11/02 09:19:34;;;;;;;1.00;0.40;;;11.50;99.90;;;;;;15494381;22;20020;-81
2023/11/02 09:25:37;;;;;;;2.80;0.30;;;11.40;99.90;;;;;;15505564;22;20087;-81
2023/11/02 09:31:41;;;;;;;1.38;0.75;;;11.40;99.90;;;;;;15511865;22;20072;-84
2023/11/02 09:38:00;;;;;;;0.57;0.30;;;11.60;99.90;;;;;;15519381;22;20493;-81
2023/11/02 09:44:05;;;;;;;1.88;0.30;;;11.70;99.90;;;;;;15548064;22;20031;-86
2023/11/02 09:50:08;;;;;;;1.27;0.22;;;11.80;99.90;;;;;;15508970;22;20038;-83
2023/11/02 09:56:11;;;;;;;0.57;0.30;;;11.90;99.90;;;;;;15535942;22;20532;-84
2023/11/02 10:02:13;;;;;;;3.10;0.30;;;12.00;99.90;;;;;;15507729;22;20032;-84
2023/11/02 10:08:15;;;;;;;2.92;0.30;;;12.00;99.90;;;;;;15541493;22;20104;-82
2023/11/02 10:14:17;;;;;;;1.05;0.40;;;12.00;99.90;;;;;;15510383;22;20024;-81
2023/11/02 10:20:19;;;;;;;0.50;0.30;;;12.00;99.90;;;;;;15505408;22;20027;-81
2023/11/02 10:26:28;;;;;;;2.65;0.30;;;12.10;99.90;;;;;;15507714;22;20031;-81
2023/11/02 10:32:30;;;;;;;0.90;0.30;;;12.10;99.90;;;;;;15509737;22;20019;-82
2023/11/02 10:38:33;;;;;;;0.60;0.30;;;12.10;99.90;;;;;;15543300;22;20023;-80
2023/11/02 10:44:38;;;;;;;0.85;0.30;;;12.20;99.90;;;;;;15541594;22;20027;-82
2023/11/02 10:50:41;;;;;;;0.50;0.20;;;12.10;99.90;;;;;;15545667;22;20272;-80
2023/11/02 10:56:49;;;;;;;2.28;0.40;;;12.10;99.90;;;;;;15514572;22;20043;-82
2023/11/02 11:02:51;;;;;;;1.88;0.30;;;12.20;99.90;;;;;;15505224;22;20551;-80
2023/11/02 11:08:56;;;;;;;1.27;0.40;;;12.20;99.90;;;;;;15505212;22;20034;-81
2023/11/02 11:14:59;;;;;;;1.17;0.30;;;12.30;99.90;;;;;;15533738;22;20024;-83
2023/11/02 11:21:02;;;;;;;0.52;0.20;;;12.50;99.90;;;;;;15561623;22;20070;-86
2023/11/02 11:27:05;;;;;;;1.05;0.30;;;12.50;99.90;;;;;;15526673;22;20054;-84
2023/11/02 11:33:44;;;;;;;2.28;0.38;;;12.40;99.90;;;;;;15549120;22;20500;-84
2023/11/02 11:39:53;;;;;;;2.47;0.40;;;12.50;99.90;;;;;;15511167;22;20023;-85
2023/11/02 11:46:01;;;;;;;3.47;0.40;;;12.70;99.90;;;;;;15502190;22;20109;-83
2023/11/02 11:52:05;;;;;;;1.77;0.50;;;12.80;99.90;;;;;;15510376;22;20020;-86
2023/11/02 11:58:08;;;;;;;1.63;0.30;;;12.80;99.90;;;;;;15525762;22;20027;-84
2023/11/02 12:04:46;;;;;;;2.25;0.30;;;12.80;99.90;;;;;;15511968;22;20357;-85
2023/11/02 12:10:57;;;;;;;4.13;0.90;;;13.00;99.90;;;;;;15506245;22;20355;-83
2023/11/02 12:16:59;;;;;;;0.85;0.30;;;13.00;99.90;;;;;;15511858;22;20020;-85
2023/11/02 12:23:04;;;;;;;1.08;0.32;;;13.00;99.90;;;;;;15514697;22;20024;-87
2023/11/02 12:29:10;;;;;;;0.75;0.20;;;13.00;99.90;;;;;;15500325;22;20027;-83
2023/11/02 12:35:18;;;;;;;1.10;0.20;;;12.90;99.90;;;;;;15501038;22;20097;-83
2023/11/02 12:41:27;;;;;;;1.77;0.30;;;13.00;99.90;;;;;;15502432;22;20226;-86
2023/11/02 12:47:40;;;;;;;1.00;0.47;;;12.90;99.90;;;;;;15510492;22;20047;-85
2023/11/02 12:53:43;;;;;;;1.90;0.30;;;12.80;99.90;;;;;;15534100;22;20027;-84
2023/11/02 12:59:46;;;;;;;3.10;0.30;;;12.90;99.90;;;;;;15522703;22;20026;-83
2023/11/02 13:05:49;;;;;;;2.00;1.00;;;12.80;99.90;;;;;;15531661;22;20244;-84
2023/11/02 13:11:54;;;;;;;4.57;0.60;;;12.80;99.90;;;;;;15562172;22;20019;-83
2023/11/02 13:17:55;;;;;;;1.23;0.40;;;12.80;99.90;;;;;;15487441;23;20024;-84
2023/11/02 13:23:58;;;;;;;3.35;0.30;;;12.80;99.90;;;;;;15502836;23;20103;-87
2023/11/02 13:30:03;;;;;;;1.73;0.47;;;12.80;99.90;;;;;;15470081;23;20032;-84
2023/11/02 13:36:08;;;;;;;4.90;0.80;;;12.90;99.90;;;;;;15466312;23;20020;-84
2023/11/02 13:42:10;;;;;;;2.95;0.40;;;12.80;99.90;;;;;;15460999;23;20027;-80
2023/11/02 13:48:12;;;;;;;1.42;0.45;;;12.80;99.90;;;;;;15488460;23;20024;-86
2023/11/02 13:54:15;;;;;;;2.03;0.68;;;12.80;99.90;;;;;;15472868;23;20020;-83
2023/11/02 14:00:17;;;;;;;2.45;0.43;;;12.80;99.90;;;;;;15471139;23;20099;-83
2023/11/02 14:06:19;;;;;;;4.25;0.40;;;12.80;99.90;;;;;;15449772;23;20028;-84
2023/11/02 14:12:23;;;;;;;1.92;0.47;;;12.90;99.90;;;;;;15460737;22;20052;-85
2023/11/02 14:18:26;;;;;;;2.75;0.70;;;12.90;99.90;;;;;;15555564;22;20349;-84
2023/11/02 14:24:27;;;;;;;2.10;0.40;;;12.90;99.90;;;;;;15527609;22;20113;-87
2023/11/02 14:30:30;;;;;;;1.30;0.50;;;12.80;99.90;;;;;;15538862;22;20028;-85
2023/11/02 14:36:32;;;;;;;1.45;0.50;;;12.80;99.90;;;;;;15580795;22;20019;-85
2023/11/02 14:42:34;;;;;;;3.08;0.90;;;12.90;99.90;;;;;;15583483;22;20055;-86
2023/11/02 14:48:37;;;;;;;0.88;0.30;;;13.00;99.90;;;;;;15615381;22;20015;-84
2023/11/02 14:54:39;;;;;;;2.40;0.50;;;13.10;99.90;;;;;;15589700;22;20015;-87
2023/11/02 15:00:56;;;;;;;4.15;0.80;;;13.10;99.90;;;;;;15581376;22;20031;-85
2023/11/02 15:06:58;;;;;;;2.63;0.70;;;13.10;99.90;;;;;;15542879;22;20023;-84
2023/11/02 15:13:00;;;;;;;3.63;0.80;;;13.10;99.90;;;;;;15535309;22;20023;-87
2023/11/02 15:19:03;;;;;;;4.22;0.60;;;13.10;99.90;;;;;;15569585;22;20031;-85
2023/11/02 15:25:05;;;;;;;2.53;0.60;;;13.10;99.90;;;;;;15530145;22;20348;-84
2023/11/02 15:31:17;;;;;;;3.13;0.65;;;13.00;99.90;;;;;;15553971;22;20034;-85
2023/11/02 15:37:19;;;;;;;2.45;0.50;;;13.00;99.90;;;;;;15551841;22;20035;-87
2023/11/02 15:43:21;;;;;;;3.08;0.95;;;13.00;99.90;;;;;;15533393;22;20057;-85
2023/11/02 15:49:23;;;;;;;5.05;0.80;;;12.90;99.90;;;;;;15525208;22;20106;-84
2023/11/02 15:55:26;;;;;;;2.95;0.73;;;12.80;99.90;;;;;;15529185;22;20024;-83
2023/11/02 16:01:29;;;;;;;4.17;1.00;;;12.70;99.90;;;;;;15529038;22;20059;-86
2023/11/02 16:07:31;;;;;;;3.03;0.82;;;12.60;99.90;;;;;;15527694;22;20027;-87
2023/11/02 16:13:33;;;;;;;3.97;0.70;;;12.60;99.90;;;;;;15527298;22;20030;-83
2023/11/02 16:19:35;;;;;;;5.38;0.85;;;12.40;99.90;;;;;;15554375;22;20031;-84
2023/11/02 16:25:39;;;;;;;4.35;0.75;;;12.40;99.90;;;;;;15519614;22;20024;-84
2023/11/02 16:31:40;;;;;;;2.47;0.82;;;12.50;99.90;;;;;;15526448;22;20030;-82
2023/11/02 16:37:42;;;;;;;4.07;0.70;;;12.40;99.90;;;;;;15523358;22;20030;-84
2023/11/02 16:43:45;;;;;;;3.72;0.90;;;12.30;99.90;;;;;;15530640;22;20021;-84
2023/11/02 16:49:46;;;;;;;3.60;0.85;;;12.30;99.90;;;;;;15548462;22;20050;-82
2023/11/02 16:55:48;;;;;;;6.55;0.73;;;12.30;99.90;;;;;;15517433;22;20458;-85
2023/11/02 17:01:51;;;;;;;6.80;0.88;;;12.30;99.90;;;;;;15519695;22;20421;-82
2023/11/02 17:07:55;;;;;;;6.07;1.13;;;12.30;99.90;;;;;;15520559;22;20489;-83
2023/11/02 17:13:57;;;;;;;8.80;0.95;;;12.20;99.90;;;;;;15517635;22;20051;-85
2023/11/02 17:19:59;;;;;;;5.15;0.80;;;12.10;99.90;;;;;;15511508;22;20320;-81
2023/11/02 17:26:01;;;;;;;3.72;0.90;;;12.20;99.90;;;;;;15517076;22;20023;-80
2023/11/02 17:32:04;;;;;;;6.35;0.90;;;12.00;99.90;;;;;;15539529;22;20579;-82
2023/11/02 17:38:06;;;;;;;5.68;1.00;;;12.00;99.90;;;;;;15514009;22;20193;-82
2023/11/02 17:44:08;;;;;;;3.13;1.38;;;12.00;99.90;;;;;;15548156;22;20023;-83
2023/11/02 17:50:10;;;;;;;4.00;0.93;;;11.90;99.90;;;;;;15515544;22;20402;-80
2023/11/02 17:56:13;;;;;;;7.28;0.98;;;11.90;99.90;;;;;;15512630;22;20051;-82
2023/11/02 18:02:16;;;;;;;5.72;1.10;;;11.90;99.90;;;;;;15540868;22;20024;-81
2023/11/02 18:08:18;;;;;;;4.03;0.90;;;11.90;99.90;;;;;;15536079;22;20757;-83
2023/11/02 18:14:20;;;;;;;4.57;0.90;;;11.90;99.90;;;;;;15512842;22;20299;-83
2023/11/02 18:20:22;;;;;;;3.63;0.82;;;11.90;99.90;;;;;;15542382;22;20019;-82
2023/11/02 18:26:24;;;;;;;5.78;0.98;;;11.90;99.90;;;;;;15515827;22;20031;-83
2023/11/02 18:32:25;;;;;;;4.05;0.82;;;11.80;99.90;;;;;;15512324;22;20028;-82
2023/11/02 18:38:27;;;;;;;4.93;1.08;;;11.80;99.90;;;;;;15505623;22;20023;-82
2023/11/02 18:44:29;;;;;;;8.25;1.10;;;11.90;99.90;;;;;;15517084;22;20034;-82
2023/11/02 18:50:31;;;;;;;7.25;1.02;;;11.80;99.90;;;;;;15530552;22;20446;-82
2023/11/02 18:56:33;;;;;;;6.60;1.23;;;11.80;99.90;;;;;;15515926;22;20354;-83
2023/11/02 19:02:38;;;;;;;5.72;1.63;;;11.70;99.90;;;;;;15545262;22;20027;-82
2023/11/02 19:08:42;;;;;;;7.97;1.52;;;11.80;99.90;;;;;;15541718;22;20023;-82
2023/11/02 19:14:43;;;;;;;9.15;1.48;;;11.70;99.90;;;;;;15542879;22;20484;-82
2023/11/02 19:20:47;;;;;;;7.03;0.98;;;11.70;99.90;;;;;;15573642;22;20012;-83
2023/11/02 19:26:49;;;;;;;7.25;1.10;;;11.70;99.90;;;;;;15602015;22;20232;-82
2023/11/02 19:32:51;;;;;;;6.32;1.10;;;11.60;99.90;;;;;;15578324;22;20266;-83
2023/11/02 19:38:54;;;;;;;6.55;1.27;;;11.50;99.90;;;;;;15553372;22;20030;-82
2023/11/02 19:44:56;;;;;;;6.78;1.33;;;11.50;99.90;;;;;;15535298;22;20020;-83
2023/11/02 19:50:58;;;;;;;7.45;1.77;;;11.50;99.90;;;;;;15518586;22;20345;-83
2023/11/02 19:57:00;;;;;;;6.05;1.00;;;11.50;99.90;;;;;;15536773;22;20016;-83
2023/11/02 20:03:02;;;;;;;5.30;1.05;;;11.40;99.90;;;;;;15518057;22;20024;-83
2023/11/02 20:09:05;;;;;;;7.57;1.08;;;11.40;99.90;;;;;;15539697;22;20039;-84
2023/11/02 20:15:08;;;;;;;6.80;1.48;;;11.40;99.90;;;;;;15509829;22;20034;-82
2023/11/02 20:21:10;;;;;;;8.90;1.38;;;11.40;99.90;;;;;;15522006;22;20020;-83
2023/11/02 20:27:12;;;;;;;6.97;1.05;;;11.40;99.90;;;;;;15543482;22;20370;-84
2023/11/02 20:33:14;;;;;;;7.55;1.35;;;11.40;99.90;;;;;;15548329;22;20030;-82
2023/11/02 20:39:16;;;;;;;6.35;1.20;;;11.40;99.90;;;;;;15506092;22;20590;-85
2023/11/02 20:45:18;;;;;;;9.57;1.25;;;11.30;99.90;;;;;;15547402;22;20462;-82
2023/11/02 20:51:20;;;;;;;8.38;1.10;;;11.30;99.90;;;;;;15521020;22;20034;-82
2023/11/02 20:57:22;;;;;;;5.50;1.00;;;11.30;99.90;;;;;;15514504;22;20596;-83
2023/11/02 21:03:24;;;;;;;8.07;1.10;;;11.30;99.90;;;;;;15544097;22;20031;-82
2023/11/02 21:09:26;;;;;;;5.40;1.20;;;11.30;99.90;;;;;;15512629;22;20349;-80
2023/11/02 21:15:28;;;;;;;5.10;1.15;;;11.40;99.90;;;;;;15539927;22;20023;-83
2023/11/02 21:21:30;;;;;;;3.85;1.10;;;11.30;99.90;;;;;;15543604;22;20462;-82
2023/11/02 21:27:32;;;;;;;6.50;1.15;;;11.30;99.90;;;;;;15547760;22;20131;-83
2023/11/02 21:33:34;;;;;;;5.82;1.40;;;11.40;99.90;;;;;;15523752;22;20027;-84
2023/11/02 21:39:37;;;;;;;5.53;0.88;;;11.40;99.90;;;;;;15547748;22;20041;-82
2023/11/02 21:45:38;;;;;;;7.72;1.10;;;11.40;99.90;;;;;;15523052;22;20027;-83
2023/11/02 21:51:44;;;;;;;8.35;1.25;;;11.30;99.90;;;;;;15551405;22;20031;-80
2023/11/02 21:57:46;;;;;;;5.65;0.95;;;11.20;99.90;;;;;;15519210;22;20074;-83
2023/11/02 22:03:48;;;;;;;4.72;1.00;;;11.10;99.90;;;;;;15518046;22;20097;-82
2023/11/02 22:09:52;;;;;;;4.88;1.00;;;11.00;99.90;;;;;;15514849;22;20058;-82
2023/11/02 22:15:54;;;;;;;3.25;1.10;;;10.90;99.90;;;;;;15518146;22;20028;-82
2023/11/02 22:21:56;;;;;;;7.70;1.17;;;10.80;99.90;;;;;;15537473;22;20041;-83
2023/11/02 22:27:58;;;;;;;3.03;1.00;;;10.70;99.90;;;;;;15521351;22;20028;-83
2023/11/02 22:34:00;;;;;;;3.65;1.17;;;10.90;99.90;;;;;;15514664;22;20023;-82
2023/11/02 22:40:04;;;;;;;6.57;1.00;;;10.90;99.90;;;;;;15512866;22;20084;-82
2023/11/02 22:46:07;;;;;;;9.50;1.45;;;10.80;99.90;;;;;;15523359;22;20043;-81
2023/11/02 22:52:09;;;;;;;3.25;1.00;;;10.80;99.90;;;;;;15545027;22;20019;-82
2023/11/02 22:58:11;;;;;;;6.15;1.20;;;10.90;99.90;;;;;;15518920;22;20105;-85
2023/11/02 23:04:13;;;;;;;7.40;1.15;;;10.70;99.90;;;;;;15542063;22;20040;-82
2023/11/02 23:10:15;;;;;;;8.70;1.52;;;10.70;99.90;;;;;;15519684;22;20057;-81
2023/11/02 23:16:18;;;;;;;5.45;1.10;;;10.80;99.90;;;;;;15553982;22;20023;-83
2023/11/02 23:22:19;;;;;;;5.95;1.30;;;10.80;99.90;;;;;;15519247;22;20568;-80
2023/11/02 23:28:21;;;;;;;4.53;0.93;;;10.80;99.90;;;;;;15523157;22;20030;-82
2023/11/02 23:34:23;;;;;;;5.93;0.80;;;10.70;99.90;;;;;;15523053;22;20019;-82
2023/11/02 23:40:26;;;;;;;4.30;1.33;;;10.70;99.90;;;;;;15556504;22;20024;-83
2023/11/02 23:46:30;;;;;;;5.15;0.95;;;10.60;99.90;;;;;;15521859;22;20162;-81
2023/11/02 23:52:35;;;;;;;8.10;1.23;;;10.50;99.90;;;;;;15553672;22;20427;-81
2023/11/02 23:58:37;;;;;;;5.82;1.13;;;10.50;99.90;;;;;;15520613;22;20024;-82
